Archival Weather

Chicago O'Hare International

Chicago, Illinois (KORD)

Report from: Friday, September 23, 2022 6:51 PM CDT
Current time: Sunday, December 4, 2022 4:57 AM CST

Current weather
Weather history
Weather forecast

Temperature15.6°C (60.1°F)
Dew point3.3°C (37.9°F)
Winds 6 kts (3.1 m/s, 6.9 mph) South (180°)
Visibility10 mi. (16.1 km)
Clouds Few clouds 3,000 ft. (914 m)
Ceiling: Broken clouds 10,000 ft. (3,048 m)
Overcast 14,000 ft. (4,267 m)
Altimeter30.07 in.Hg (1018 mB)
Relative humidity44 %
Density altitude17 ft. (5 m)
Sea-level pressure101.8 kPa (1018 mB, 30.07 in.Hg)
Max temp last 6 hours17.8°C (64.0°F)
Min temp last 6 hours15.6°C (60.1°F)
Remarks Automated weather observing station with precipitation discriminator
Pressure falling more slowly
Flight conditions Visual Meteorological Conditions
Raw dataKORD 232351Z 18006KT 10SM FEW030 BKN100 OVC140 16/03 A3007 RMK AO2 SLP184 T01560033 10178 20156 56030
An error has occurred. This application may no longer respond until reloaded. Reload 🗙